sensor_id;sensor_type;location;lat;lon;timestamp;temperature;humidity
37322;DHT22;23697;48.684;9.032;2023-04-03T00:02:00;2.70;80.40
37322;DHT22;23697;48.684;9.032;2023-04-03T00:04:27;2.70;80.40
37322;DHT22;23697;48.684;9.032;2023-04-03T00:06:53;2.60;80.40
37322;DHT22;23697;48.684;9.032;2023-04-03T00:09:20;2.60;80.40
37322;DHT22;23697;48.684;9.032;2023-04-03T00:11:47;2.60;80.50
37322;DHT22;23697;48.684;9.032;2023-04-03T00:14:13;2.60;80.20
37322;DHT22;23697;48.684;9.032;2023-04-03T00:16:41;2.60;80.30
37322;DHT22;23697;48.684;9.032;2023-04-03T00:19:08;2.60;80.10
37322;DHT22;23697;48.684;9.032;2023-04-03T00:21:37;2.70;80.20
37322;DHT22;23697;48.684;9.032;2023-04-03T00:24:05;2.60;80.30
37322;DHT22;23697;48.684;9.032;2023-04-03T00:26:32;2.60;80.40
37322;DHT22;23697;48.684;9.032;2023-04-03T00:28:58;2.60;80.30
37322;DHT22;23697;48.684;9.032;2023-04-03T00:31:25;2.60;80.20
37322;DHT22;23697;48.684;9.032;2023-04-03T00:33:53;2.50;80.30
37322;DHT22;23697;48.684;9.032;2023-04-03T00:36:20;2.60;80.20
37322;DHT22;23697;48.684;9.032;2023-04-03T00:38:47;2.50;80.10
37322;DHT22;23697;48.684;9.032;2023-04-03T00:41:13;2.50;79.80
37322;DHT22;23697;48.684;9.032;2023-04-03T00:43:40;2.50;79.70
37322;DHT22;23697;48.684;9.032;2023-04-03T00:46:06;2.50;79.80
37322;DHT22;23697;48.684;9.032;2023-04-03T00:48:34;2.40;79.70
37322;DHT22;23697;48.684;9.032;2023-04-03T00:51:04;2.50;79.80
37322;DHT22;23697;48.684;9.032;2023-04-03T00:53:33;2.50;80.00
37322;DHT22;23697;48.684;9.032;2023-04-03T00:56:01;2.50;79.80
37322;DHT22;23697;48.684;9.032;2023-04-03T00:58:31;2.50;80.00
37322;DHT22;23697;48.684;9.032;2023-04-03T01:00:59;2.50;79.60
37322;DHT22;23697;48.684;9.032;2023-04-03T01:03:29;2.50;79.30
37322;DHT22;23697;48.684;9.032;2023-04-03T01:05:56;2.50;79.40
37322;DHT22;23697;48.684;9.032;2023-04-03T01:08:25;2.40;79.70
37322;DHT22;23697;48.684;9.032;2023-04-03T01:10:51;2.40;79.80
37322;DHT22;23697;48.684;9.032;2023-04-03T01:13:19;2.40;79.60
37322;DHT22;23697;48.684;9.032;2023-04-03T01:15:46;2.40;79.60
37322;DHT22;23697;48.684;9.032;2023-04-03T01:18:13;2.30;79.50
37322;DHT22;23697;48.684;9.032;2023-04-03T01:20:49;2.30;79.40
37322;DHT22;23697;48.684;9.032;2023-04-03T01:23:22;2.30;79.50
37322;DHT22;23697;48.684;9.032;2023-04-03T01:25:53;2.30;79.60
37322;DHT22;23697;48.684;9.032;2023-04-03T01:28:21;2.30;79.80
37322;DHT22;23697;48.684;9.032;2023-04-03T01:30:48;2.30;79.80
37322;DHT22;23697;48.684;9.032;2023-04-03T01:33:18;2.40;79.50
37322;DHT22;23697;48.684;9.032;2023-04-03T01:35:45;2.30;79.60
37322;DHT22;23697;48.684;9.032;2023-04-03T01:38:12;2.20;79.60
37322;DHT22;23697;48.684;9.032;2023-04-03T01:40:39;2.30;79.60
37322;DHT22;23697;48.684;9.032;2023-04-03T01:43:06;2.30;79.50
37322;DHT22;23697;48.684;9.032;2023-04-03T01:45:32;2.20;79.60
37322;DHT22;23697;48.684;9.032;2023-04-03T01:47:59;2.20;79.60
37322;DHT22;23697;48.684;9.032;2023-04-03T01:50:27;2.20;79.80
37322;DHT22;23697;48.684;9.032;2023-04-03T01:52:54;2.20;79.60
37322;DHT22;23697;48.684;9.032;2023-04-03T01:55:21;2.20;79.50
37322;DHT22;23697;48.684;9.032;2023-04-03T01:57:47;2.20;79.50
37322;DHT22;23697;48.684;9.032;2023-04-03T02:00:14;2.20;79.30
37322;DHT22;23697;48.684;9.032;2023-04-03T02:02:41;2.20;79.50
37322;DHT22;23697;48.684;9.032;2023-04-03T02:05:08;2.20;79.60
37322;DHT22;23697;48.684;9.032;2023-04-03T02:07:36;2.10;79.60
37322;DHT22;23697;48.684;9.032;2023-04-03T02:10:03;2.10;79.60
37322;DHT22;23697;48.684;9.032;2023-04-03T02:12:30;2.10;79.60
37322;DHT22;23697;48.684;9.032;2023-04-03T02:14:56;2.20;79.60
37322;DHT22;23697;48.684;9.032;2023-04-03T02:17:23;2.20;79.60
37322;DHT22;23697;48.684;9.032;2023-04-03T02:19:50;2.10;79.80
37322;DHT22;23697;48.684;9.032;2023-04-03T02:22:17;2.10;79.90
37322;DHT22;23697;48.684;9.032;2023-04-03T02:24:44;2.10;80.10
37322;DHT22;23697;48.684;9.032;2023-04-03T02:27:11;2.10;80.00
37322;DHT22;23697;48.684;9.032;2023-04-03T02:29:38;2.10;79.90
37322;DHT22;23697;48.684;9.032;2023-04-03T02:32:05;2.10;79.80
37322;DHT22;23697;48.684;9.032;2023-04-03T02:34:31;2.10;79.90
37322;DHT22;23697;48.684;9.032;2023-04-03T02:36:58;2.10;79.70
37322;DHT22;23697;48.684;9.032;2023-04-03T02:39:25;2.10;80.00
37322;DHT22;23697;48.684;9.032;2023-04-03T02:41:53;2.10;80.00
37322;DHT22;23697;48.684;9.032;2023-04-03T02:44:20;2.10;79.90
37322;DHT22;23697;48.684;9.032;2023-04-03T02:46:48;2.10;79.90
37322;DHT22;23697;48.684;9.032;2023-04-03T02:49:15;2.10;79.80
37322;DHT22;23697;48.684;9.032;2023-04-03T02:51:42;2.10;80.00
37322;DHT22;23697;48.684;9.032;2023-04-03T02:54:08;2.10;80.10
37322;DHT22;23697;48.684;9.032;2023-04-03T02:56:35;2.10;80.20
37322;DHT22;23697;48.684;9.032;2023-04-03T02:59:03;2.10;80.10
37322;DHT22;23697;48.684;9.032;2023-04-03T03:01:30;2.10;80.30
37322;DHT22;23697;48.684;9.032;2023-04-03T03:03:58;2.10;80.20
37322;DHT22;23697;48.684;9.032;2023-04-03T03:06:24;2.10;80.00
37322;DHT22;23697;48.684;9.032;2023-04-03T03:08:51;2.10;80.20
37322;DHT22;23697;48.684;9.032;2023-04-03T03:11:18;2.10;80.20
37322;DHT22;23697;48.684;9.032;2023-04-03T03:13:45;2.20;80.30
37322;DHT22;23697;48.684;9.032;2023-04-03T03:16:13;2.20;80.00
37322;DHT22;23697;48.684;9.032;2023-04-03T03:18:39;2.20;80.00
37322;DHT22;23697;48.684;9.032;2023-04-03T03:21:06;2.10;80.20
37322;DHT22;23697;48.684;9.032;2023-04-03T03:23:33;2.10;80.30
37322;DHT22;23697;48.684;9.032;2023-04-03T03:26:00;2.10;80.20
37322;DHT22;23697;48.684;9.032;2023-04-03T03:28:27;2.00;80.30
37322;DHT22;23697;48.684;9.032;2023-04-03T03:30:54;2.10;80.40
37322;DHT22;23697;48.684;9.032;2023-04-03T03:33:22;2.10;80.40
37322;DHT22;23697;48.684;9.032;2023-04-03T03:35:48;2.10;80.10
37322;DHT22;23697;48.684;9.032;2023-04-03T03:38:15;2.10;79.90
37322;DHT22;23697;48.684;9.032;2023-04-03T03:40:42;2.10;79.70
37322;DHT22;23697;48.684;9.032;2023-04-03T03:43:09;2.10;79.90
37322;DHT22;23697;48.684;9.032;2023-04-03T03:45:35;2.10;79.40
37322;DHT22;23697;48.684;9.032;2023-04-03T03:48:02;2.10;79.20
37322;DHT22;23697;48.684;9.032;2023-04-03T03:50:30;2.10;78.80
37322;DHT22;23697;48.684;9.032;2023-04-03T03:52:57;2.10;78.80
37322;DHT22;23697;48.684;9.032;2023-04-03T03:55:23;2.10;78.70
37322;DHT22;23697;48.684;9.032;2023-04-03T03:57:50;2.10;78.30
37322;DHT22;23697;48.684;9.032;2023-04-03T04:00:17;2.10;78.00
37322;DHT22;23697;48.684;9.032;2023-04-03T04:02:44;2.10;77.90
37322;DHT22;23697;48.684;9.032;2023-04-03T04:05:11;2.10;77.90
37322;DHT22;23697;48.684;9.032;2023-04-03T04:07:39;2.10;77.60
37322;DHT22;23697;48.684;9.032;2023-04-03T04:10:06;2.10;77.30
37322;DHT22;23697;48.684;9.032;2023-04-03T04:12:32;2.10;77.20
37322;DHT22;23697;48.684;9.032;2023-04-03T04:15:00;2.10;77.10
37322;DHT22;23697;48.684;9.032;2023-04-03T04:17:27;2.10;77.20
37322;DHT22;23697;48.684;9.032;2023-04-03T04:19:54;2.10;77.10
37322;DHT22;23697;48.684;9.032;2023-04-03T04:22:20;2.10;77.00
37322;DHT22;23697;48.684;9.032;2023-04-03T04:24:48;2.10;76.80
37322;DHT22;23697;48.684;9.032;2023-04-03T04:27:15;2.10;76.90
37322;DHT22;23697;48.684;9.032;2023-04-03T04:29:42;2.10;77.10
37322;DHT22;23697;48.684;9.032;2023-04-03T04:32:08;2.10;77.00
37322;DHT22;23697;48.684;9.032;2023-04-03T04:34:35;2.10;76.90
37322;DHT22;23697;48.684;9.032;2023-04-03T04:37:02;2.20;77.20
37322;DHT22;23697;48.684;9.032;2023-04-03T04:39:28;2.10;76.90
37322;DHT22;23697;48.684;9.032;2023-04-03T04:41:56;2.20;76.50
37322;DHT22;23697;48.684;9.032;2023-04-03T04:44:23;2.10;76.70
37322;DHT22;23697;48.684;9.032;2023-04-03T04:46:50;2.10;76.40
37322;DHT22;23697;48.684;9.032;2023-04-03T04:49:16;2.10;76.40
37322;DHT22;23697;48.684;9.032;2023-04-03T04:51:43;2.10;76.50
37322;DHT22;23697;48.684;9.032;2023-04-03T04:54:10;2.10;76.30
37322;DHT22;23697;48.684;9.032;2023-04-03T04:56:36;2.10;76.40
37322;DHT22;23697;48.684;9.032;2023-04-03T04:59:04;2.20;76.20
37322;DHT22;23697;48.684;9.032;2023-04-03T05:01:31;2.20;76.30
37322;DHT22;23697;48.684;9.032;2023-04-03T05:03:58;2.20;75.60
37322;DHT22;23697;48.684;9.032;2023-04-03T05:06:24;2.30;75.40
37322;DHT22;23697;48.684;9.032;2023-04-03T05:08:51;2.30;74.70
37322;DHT22;23697;48.684;9.032;2023-04-03T05:11:18;2.20;74.90
37322;DHT22;23697;48.684;9.032;2023-04-03T05:13:45;2.30;75.10
37322;DHT22;23697;48.684;9.032;2023-04-03T05:16:13;2.30;75.10
37322;DHT22;23697;48.684;9.032;2023-04-03T05:18:40;2.30;75.40
37322;DHT22;23697;48.684;9.032;2023-04-03T05:21:07;2.30;74.50
37322;DHT22;23697;48.684;9.032;2023-04-03T05:23:33;2.40;73.60
37322;DHT22;23697;48.684;9.032;2023-04-03T05:26:00;2.40;72.30
37322;DHT22;23697;48.684;9.032;2023-04-03T05:28:26;2.40;72.20
37322;DHT22;23697;48.684;9.032;2023-04-03T05:30:53;2.50;71.50
37322;DHT22;23697;48.684;9.032;2023-04-03T05:33:22;2.40;71.90
37322;DHT22;23697;48.684;9.032;2023-04-03T05:35:49;2.50;72.00
37322;DHT22;23697;48.684;9.032;2023-04-03T05:38:15;2.40;71.60
37322;DHT22;23697;48.684;9.032;2023-04-03T05:40:42;2.50;70.30
37322;DHT22;23697;48.684;9.032;2023-04-03T05:43:09;2.50;69.00
37322;DHT22;23697;48.684;9.032;2023-04-03T05:45:36;2.60;69.20
37322;DHT22;23697;48.684;9.032;2023-04-03T05:48:02;2.60;68.90
37322;DHT22;23697;48.684;9.032;2023-04-03T05:50:31;2.60;68.60
37322;DHT22;23697;48.684;9.032;2023-04-03T05:52:57;2.60;69.30
37322;DHT22;23697;48.684;9.032;2023-04-03T05:55:25;2.60;69.60
37322;DHT22;23697;48.684;9.032;2023-04-03T05:57:52;2.60;69.50
37322;DHT22;23697;48.684;9.032;2023-04-03T06:00:19;2.70;68.80
37322;DHT22;23697;48.684;9.032;2023-04-03T06:02:46;2.70;69.00
37322;DHT22;23697;48.684;9.032;2023-04-03T06:05:13;2.70;68.30
37322;DHT22;23697;48.684;9.032;2023-04-03T06:07:41;2.70;68.50
37322;DHT22;23697;48.684;9.032;2023-04-03T06:10:10;2.70;68.70
37322;DHT22;23697;48.684;9.032;2023-04-03T06:12:37;2.70;69.10
37322;DHT22;23697;48.684;9.032;2023-04-03T06:15:04;2.70;69.40
37322;DHT22;23697;48.684;9.032;2023-04-03T06:17:31;2.60;69.70
37322;DHT22;23697;48.684;9.032;2023-04-03T06:19:57;2.60;70.10
37322;DHT22;23697;48.684;9.032;2023-04-03T06:22:24;2.60;70.30
37322;DHT22;23697;48.684;9.032;2023-04-03T06:24:56;2.60;70.80
37322;DHT22;23697;48.684;9.032;2023-04-03T06:27:23;2.60;70.70
37322;DHT22;23697;48.684;9.032;2023-04-03T06:29:50;2.60;70.90
37322;DHT22;23697;48.684;9.032;2023-04-03T06:32:16;2.60;71.30
37322;DHT22;23697;48.684;9.032;2023-04-03T06:34:43;2.70;71.40
37322;DHT22;23697;48.684;9.032;2023-04-03T06:37:10;2.80;70.60
37322;DHT22;23697;48.684;9.032;2023-04-03T06:39:37;2.80;70.40
37322;DHT22;23697;48.684;9.032;2023-04-03T06:42:05;2.80;70.50
37322;DHT22;23697;48.684;9.032;2023-04-03T06:44:32;2.80;70.60
37322;DHT22;23697;48.684;9.032;2023-04-03T06:47:00;2.90;70.90
37322;DHT22;23697;48.684;9.032;2023-04-03T06:49:26;2.90;70.60
37322;DHT22;23697;48.684;9.032;2023-04-03T06:51:54;3.00;70.70
37322;DHT22;23697;48.684;9.032;2023-04-03T06:54:20;3.10;70.50
37322;DHT22;23697;48.684;9.032;2023-04-03T06:56:47;3.20;69.90
37322;DHT22;23697;48.684;9.032;2023-04-03T06:59:15;3.10;69.80
37322;DHT22;23697;48.684;9.032;2023-04-03T07:01:42;3.20;70.00
37322;DHT22;23697;48.684;9.032;2023-04-03T07:04:09;3.20;70.00
37322;DHT22;23697;48.684;9.032;2023-04-03T07:06:35;3.30;70.20
37322;DHT22;23697;48.684;9.032;2023-04-03T07:09:02;3.40;69.80
37322;DHT22;23697;48.684;9.032;2023-04-03T07:11:29;3.50;70.20
37322;DHT22;23697;48.684;9.032;2023-04-03T07:13:55;3.50;69.60
37322;DHT22;23697;48.684;9.032;2023-04-03T07:16:24;3.60;70.40
37322;DHT22;23697;48.684;9.032;2023-04-03T07:18:50;3.60;69.80
37322;DHT22;23697;48.684;9.032;2023-04-03T07:21:17;3.70;70.00
37322;DHT22;23697;48.684;9.032;2023-04-03T07:23:44;3.90;69.40
37322;DHT22;23697;48.684;9.032;2023-04-03T07:26:10;4.00;69.60
37322;DHT22;23697;48.684;9.032;2023-04-03T07:28:37;3.90;67.70
37322;DHT22;23697;48.684;9.032;2023-04-03T07:31:07;4.00;69.10
37322;DHT22;23697;48.684;9.032;2023-04-03T07:33:37;4.10;69.80
37322;DHT22;23697;48.684;9.032;2023-04-03T07:36:04;4.10;68.20
37322;DHT22;23697;48.684;9.032;2023-04-03T07:38:33;4.20;67.60
37322;DHT22;23697;48.684;9.032;2023-04-03T07:41:00;3.90;67.80
37322;DHT22;23697;48.684;9.032;2023-04-03T07:43:27;3.80;68.30
37322;DHT22;23697;48.684;9.032;2023-04-03T07:45:54;3.80;68.70
37322;DHT22;23697;48.684;9.032;2023-04-03T07:48:20;4.00;68.00
37322;DHT22;23697;48.684;9.032;2023-04-03T07:50:49;4.00;68.60
37322;DHT22;23697;48.684;9.032;2023-04-03T07:53:15;4.00;68.00
37322;DHT22;23697;48.684;9.032;2023-04-03T07:55:46;4.10;69.10
37322;DHT22;23697;48.684;9.032;2023-04-03T07:58:13;4.10;68.40
37322;DHT22;23697;48.684;9.032;2023-04-03T08:00:41;4.40;68.80
37322;DHT22;23697;48.684;9.032;2023-04-03T08:03:09;4.60;68.20
37322;DHT22;23697;48.684;9.032;2023-04-03T08:05:36;4.60;66.60
37322;DHT22;23697;48.684;9.032;2023-04-03T08:08:05;4.50;66.60
37322;DHT22;23697;48.684;9.032;2023-04-03T08:10:32;4.70;67.50
37322;DHT22;23697;48.684;9.032;2023-04-03T08:12:59;4.90;67.10
37322;DHT22;23697;48.684;9.032;2023-04-03T08:15:26;4.80;65.70
37322;DHT22;23697;48.684;9.032;2023-04-03T08:17:53;4.60;65.90
37322;DHT22;23697;48.684;9.032;2023-04-03T08:20:19;4.50;66.10
37322;DHT22;23697;48.684;9.032;2023-04-03T08:22:46;4.60;66.30
37322;DHT22;23697;48.684;9.032;2023-04-03T08:25:14;4.60;65.80
37322;DHT22;23697;48.684;9.032;2023-04-03T08:27:41;4.60;65.50
37322;DHT22;23697;48.684;9.032;2023-04-03T08:30:08;4.50;65.40
37322;DHT22;23697;48.684;9.032;2023-04-03T08:32:35;4.60;66.50
37322;DHT22;23697;48.684;9.032;2023-04-03T08:35:02;4.70;66.30
37322;DHT22;23697;48.684;9.032;2023-04-03T08:37:31;4.80;66.10
37322;DHT22;23697;48.684;9.032;2023-04-03T08:39:57;4.80;66.70
37322;DHT22;23697;48.684;9.032;2023-04-03T08:42:30;4.70;66.30
37322;DHT22;23697;48.684;9.032;2023-04-03T08:45:01;4.80;66.90
37322;DHT22;23697;48.684;9.032;2023-04-03T08:47:33;4.90;66.80
37322;DHT22;23697;48.684;9.032;2023-04-03T08:50:04;5.10;66.40
37322;DHT22;23697;48.684;9.032;2023-04-03T08:52:34;5.00;64.70
37322;DHT22;23697;48.684;9.032;2023-04-03T08:55:02;5.00;64.80
37322;DHT22;23697;48.684;9.032;2023-04-03T08:57:32;5.10;66.80
37322;DHT22;23697;48.684;9.032;2023-04-03T09:00:01;5.20;66.00
37322;DHT22;23697;48.684;9.032;2023-04-03T09:02:31;5.20;66.20
37322;DHT22;23697;48.684;9.032;2023-04-03T09:04:59;5.50;66.10
37322;DHT22;23697;48.684;9.032;2023-04-03T09:07:35;5.40;65.00
37322;DHT22;23697;48.684;9.032;2023-04-03T09:10:05;5.10;65.60
37322;DHT22;23697;48.684;9.032;2023-04-03T09:12:34;5.30;66.00
37322;DHT22;23697;48.684;9.032;2023-04-03T09:15:03;5.40;65.30
37322;DHT22;23697;48.684;9.032;2023-04-03T09:17:36;5.30;65.20
37322;DHT22;23697;48.684;9.032;2023-04-03T09:20:09;5.30;66.00
37322;DHT22;23697;48.684;9.032;2023-04-03T09:22:38;5.30;65.80
37322;DHT22;23697;48.684;9.032;2023-04-03T09:25:07;5.10;65.80
37322;DHT22;23697;48.684;9.032;2023-04-03T09:27:38;5.10;66.60
37322;DHT22;23697;48.684;9.032;2023-04-03T09:30:06;5.10;66.40
37322;DHT22;23697;48.684;9.032;2023-04-03T09:32:34;5.10;66.20
37322;DHT22;23697;48.684;9.032;2023-04-03T09:35:02;5.10;66.90
37322;DHT22;23697;48.684;9.032;2023-04-03T09:37:34;5.20;66.80
37322;DHT22;23697;48.684;9.032;2023-04-03T09:40:01;5.20;66.40
37322;DHT22;23697;48.684;9.032;2023-04-03T09:42:29;5.10;65.90
37322;DHT22;23697;48.684;9.032;2023-04-03T09:44:59;5.10;65.70
37322;DHT22;23697;48.684;9.032;2023-04-03T09:47:27;5.00;65.40
37322;DHT22;23697;48.684;9.032;2023-04-03T09:50:09;4.90;66.20
37322;DHT22;23697;48.684;9.032;2023-04-03T09:52:43;4.90;65.60
37322;DHT22;23697;48.684;9.032;2023-04-03T09:55:13;5.00;66.50
37322;DHT22;23697;48.684;9.032;2023-04-03T09:57:41;5.00;66.30
37322;DHT22;23697;48.684;9.032;2023-04-03T10:00:18;4.90;64.80
37322;DHT22;23697;48.684;9.032;2023-04-03T10:02:47;4.80;65.10
37322;DHT22;23697;48.684;9.032;2023-04-03T10:05:26;4.90;65.60
37322;DHT22;23697;48.684;9.032;2023-04-03T10:07:56;5.10;64.70
37322;DHT22;23697;48.684;9.032;2023-04-03T10:10:33;5.20;64.00
37322;DHT22;23697;48.684;9.032;2023-04-03T10:13:04;5.50;61.30
37322;DHT22;23697;48.684;9.032;2023-04-03T10:15:32;5.50;61.00
37322;DHT22;23697;48.684;9.032;2023-04-03T10:18:02;5.80;62.60
37322;DHT22;23697;48.684;9.032;2023-04-03T10:20:32;6.00;60.90
37322;DHT22;23697;48.684;9.032;2023-04-03T10:23:02;6.10;61.50
37322;DHT22;23697;48.684;9.032;2023-04-03T10:25:31;6.10;58.80
37322;DHT22;23697;48.684;9.032;2023-04-03T10:28:00;5.90;58.30
37322;DHT22;23697;48.684;9.032;2023-04-03T10:30:41;5.90;58.10
37322;DHT22;23697;48.684;9.032;2023-04-03T10:33:16;6.00;58.70
37322;DHT22;23697;48.684;9.032;2023-04-03T10:35:47;5.90;58.90
37322;DHT22;23697;48.684;9.032;2023-04-03T10:38:20;5.70;59.40
37322;DHT22;23697;48.684;9.032;2023-04-03T10:40:51;5.70;60.90
37322;DHT22;23697;48.684;9.032;2023-04-03T10:43:21;5.70;61.70
37322;DHT22;23697;48.684;9.032;2023-04-03T10:45:54;5.70;62.50
37322;DHT22;23697;48.684;9.032;2023-04-03T10:48:26;5.60;62.30
37322;DHT22;23697;48.684;9.032;2023-04-03T10:50:58;5.40;62.90
37322;DHT22;23697;48.684;9.032;2023-04-03T10:53:29;5.50;62.40
37322;DHT22;23697;48.684;9.032;2023-04-03T10:56:00;5.50;62.00
37322;DHT22;23697;48.684;9.032;2023-04-03T10:58:29;5.60;59.90
37322;DHT22;23697;48.684;9.032;2023-04-03T11:00:59;5.70;59.40
37322;DHT22;23697;48.684;9.032;2023-04-03T11:03:29;5.80;59.80
37322;DHT22;23697;48.684;9.032;2023-04-03T11:05:57;5.70;57.70
37322;DHT22;23697;48.684;9.032;2023-04-03T11:08:26;5.60;58.50
37322;DHT22;23697;48.684;9.032;2023-04-03T11:10:55;5.60;60.00
37322;DHT22;23697;48.684;9.032;2023-04-03T11:13:24;5.50;60.50
37322;DHT22;23697;48.684;9.032;2023-04-03T11:15:52;5.40;61.40
37322;DHT22;23697;48.684;9.032;2023-04-03T11:18:22;5.50;59.90
37322;DHT22;23697;48.684;9.032;2023-04-03T11:20:53;5.30;60.30
37322;DHT22;23697;48.684;9.032;2023-04-03T11:23:24;5.40;60.60
37322;DHT22;23697;48.684;9.032;2023-04-03T11:25:51;5.40;61.50
37322;DHT22;23697;48.684;9.032;2023-04-03T11:28:19;5.40;61.70
37322;DHT22;23697;48.684;9.032;2023-04-03T11:30:47;5.30;61.80
37322;DHT22;23697;48.684;9.032;2023-04-03T11:33:21;5.20;62.10
37322;DHT22;23697;48.684;9.032;2023-04-03T11:35:52;5.20;61.70
37322;DHT22;23697;48.684;9.032;2023-04-03T11:38:21;5.10;62.50
37322;DHT22;23697;48.684;9.032;2023-04-03T11:40:49;5.10;62.40
37322;DHT22;23697;48.684;9.032;2023-04-03T11:43:21;5.00;62.20
37322;DHT22;23697;48.684;9.032;2023-04-03T11:45:52;5.00;61.70
37322;DHT22;23697;48.684;9.032;2023-04-03T11:53:48;5.30;62.50
37322;DHT22;23697;48.684;9.032;2023-04-03T11:56:28;5.30;60.60
37322;DHT22;23697;48.684;9.032;2023-04-03T12:01:44;5.30;60.50
37322;DHT22;23697;48.684;9.032;2023-04-03T12:04:11;5.20;59.70
37322;DHT22;23697;48.684;9.032;2023-04-03T12:06:49;5.30;59.30
37322;DHT22;23697;48.684;9.032;2023-04-03T12:09:25;5.20;59.20
37322;DHT22;23697;48.684;9.032;2023-04-03T12:11:52;5.20;58.70
37322;DHT22;23697;48.684;9.032;2023-04-03T12:14:21;5.30;58.90
37322;DHT22;23697;48.684;9.032;2023-04-03T12:16:49;5.50;59.50
37322;DHT22;23697;48.684;9.032;2023-04-03T12:19:27;5.50;58.50
37322;DHT22;23697;48.684;9.032;2023-04-03T12:22:14;5.60;58.30
37322;DHT22;23697;48.684;9.032;2023-04-03T12:24:44;5.60;58.10
37322;DHT22;23697;48.684;9.032;2023-04-03T12:27:32;5.70;57.40
37322;DHT22;23697;48.684;9.032;2023-04-03T12:30:01;5.60;57.50
37322;DHT22;23697;48.684;9.032;2023-04-03T12:32:54;5.60;56.80
37322;DHT22;23697;48.684;9.032;2023-04-03T12:35:24;5.50;56.60
37322;DHT22;23697;48.684;9.032;2023-04-03T12:40:45;5.30;57.50
37322;DHT22;23697;48.684;9.032;2023-04-03T12:43:28;5.20;57.20
37322;DHT22;23697;48.684;9.032;2023-04-03T12:45:58;5.10;57.90
37322;DHT22;23697;48.684;9.032;2023-04-03T12:48:29;5.20;58.10
37322;DHT22;23697;48.684;9.032;2023-04-03T12:50:56;5.20;58.00
37322;DHT22;23697;48.684;9.032;2023-04-03T12:53:24;5.30;57.70
37322;DHT22;23697;48.684;9.032;2023-04-03T12:55:54;5.40;58.50
37322;DHT22;23697;48.684;9.032;2023-04-03T12:58:22;5.40;57.50
37322;DHT22;23697;48.684;9.032;2023-04-03T13:00:58;5.50;58.10
37322;DHT22;23697;48.684;9.032;2023-04-03T13:03:25;5.70;58.50
37322;DHT22;23697;48.684;9.032;2023-04-03T13:05:53;5.90;57.10
37322;DHT22;23697;48.684;9.032;2023-04-03T13:08:20;6.00;55.30
37322;DHT22;23697;48.684;9.032;2023-04-03T13:10:49;6.10;55.50
37322;DHT22;23697;48.684;9.032;2023-04-03T13:13:18;6.30;55.80
37322;DHT22;23697;48.684;9.032;2023-04-03T13:15:46;6.30;55.50
37322;DHT22;23697;48.684;9.032;2023-04-03T13:18:25;6.40;55.00
37322;DHT22;23697;48.684;9.032;2023-04-03T13:20:53;6.30;54.90
37322;DHT22;23697;48.684;9.032;2023-04-03T13:23:20;6.20;53.80
37322;DHT22;23697;48.684;9.032;2023-04-03T13:25:48;6.10;53.60
37322;DHT22;23697;48.684;9.032;2023-04-03T13:28:17;6.10;51.80
37322;DHT22;23697;48.684;9.032;2023-04-03T13:30:55;6.10;52.60
37322;DHT22;23697;48.684;9.032;2023-04-03T13:33:22;6.20;53.10
37322;DHT22;23697;48.684;9.032;2023-04-03T13:35:54;6.30;52.00
37322;DHT22;23697;48.684;9.032;2023-04-03T13:38:23;6.10;51.70
37322;DHT22;23697;48.684;9.032;2023-04-03T13:40:50;6.20;51.80
37322;DHT22;23697;48.684;9.032;2023-04-03T13:43:20;6.30;52.00
37322;DHT22;23697;48.684;9.032;2023-04-03T13:46:02;6.40;52.30
37322;DHT22;23697;48.684;9.032;2023-04-03T13:48:34;6.50;51.30
37322;DHT22;23697;48.684;9.032;2023-04-03T13:51:02;6.50;50.50
37322;DHT22;23697;48.684;9.032;2023-04-03T13:53:30;6.40;51.00
37322;DHT22;23697;48.684;9.032;2023-04-03T13:55:59;6.60;51.70
37322;DHT22;23697;48.684;9.032;2023-04-03T13:58:25;6.60;50.80
37322;DHT22;23697;48.684;9.032;2023-04-03T14:00:53;6.40;51.00
37322;DHT22;23697;48.684;9.032;2023-04-03T14:03:23;6.40;53.50
37322;DHT22;23697;48.684;9.032;2023-04-03T14:05:50;6.10;51.20
37322;DHT22;23697;48.684;9.032;2023-04-03T14:08:16;6.10;52.20
37322;DHT22;23697;48.684;9.032;2023-04-03T14:10:43;6.10;51.00
37322;DHT22;23697;48.684;9.032;2023-04-03T14:13:11;6.00;51.20
37322;DHT22;23697;48.684;9.032;2023-04-03T14:15:38;6.10;51.60
37322;DHT22;23697;48.684;9.032;2023-04-03T14:18:04;6.10;51.00
37322;DHT22;23697;48.684;9.032;2023-04-03T14:20:33;6.20;52.20
37322;DHT22;23697;48.684;9.032;2023-04-03T14:22:59;6.40;51.80
37322;DHT22;23697;48.684;9.032;2023-04-03T14:25:26;6.50;51.80
37322;DHT22;23697;48.684;9.032;2023-04-03T14:27:53;6.70;50.70
37322;DHT22;23697;48.684;9.032;2023-04-03T14:30:22;6.60;49.30
37322;DHT22;23697;48.684;9.032;2023-04-03T14:32:49;6.50;50.00
37322;DHT22;23697;48.684;9.032;2023-04-03T14:35:17;6.20;50.10
37322;DHT22;23697;48.684;9.032;2023-04-03T14:37:45;6.10;51.10
37322;DHT22;23697;48.684;9.032;2023-04-03T14:40:12;6.00;50.50
37322;DHT22;23697;48.684;9.032;2023-04-03T14:42:39;5.90;52.50
37322;DHT22;23697;48.684;9.032;2023-04-03T14:45:07;5.80;51.50
37322;DHT22;23697;48.684;9.032;2023-04-03T14:47:34;5.80;51.30
37322;DHT22;23697;48.684;9.032;2023-04-03T14:50:04;5.70;51.50
37322;DHT22;23697;48.684;9.032;2023-04-03T14:52:31;5.70;52.40
37322;DHT22;23697;48.684;9.032;2023-04-03T14:55:00;5.60;52.60
37322;DHT22;23697;48.684;9.032;2023-04-03T14:57:28;5.60;53.40
37322;DHT22;23697;48.684;9.032;2023-04-03T14:59:54;5.70;53.10
37322;DHT22;23697;48.684;9.032;2023-04-03T15:02:25;5.70;53.40
37322;DHT22;23697;48.684;9.032;2023-04-03T15:04:53;5.80;53.00
37322;DHT22;23697;48.684;9.032;2023-04-03T15:07:19;5.80;53.50
37322;DHT22;23697;48.684;9.032;2023-04-03T15:09:46;5.70;53.80
37322;DHT22;23697;48.684;9.032;2023-04-03T15:12:14;5.70;52.40
37322;DHT22;23697;48.684;9.032;2023-04-03T15:14:41;5.80;52.00
37322;DHT22;23697;48.684;9.032;2023-04-03T15:17:08;6.20;51.60
37322;DHT22;23697;48.684;9.032;2023-04-03T15:19:40;6.80;51.30
37322;DHT22;23697;48.684;9.032;2023-04-03T15:22:06;7.30;50.10
37322;DHT22;23697;48.684;9.032;2023-04-03T15:24:35;7.40;48.20
37322;DHT22;23697;48.684;9.032;2023-04-03T15:27:01;7.30;47.50
37322;DHT22;23697;48.684;9.032;2023-04-03T15:29:29;7.00;47.40
37322;DHT22;23697;48.684;9.032;2023-04-03T15:31:56;6.60;47.50
37322;DHT22;23697;48.684;9.032;2023-04-03T15:34:23;6.40;48.70
37322;DHT22;23697;48.684;9.032;2023-04-03T15:36:49;6.20;48.80
37322;DHT22;23697;48.684;9.032;2023-04-03T15:39:17;6.10;49.50
37322;DHT22;23697;48.684;9.032;2023-04-03T15:41:44;6.10;49.60
37322;DHT22;23697;48.684;9.032;2023-04-03T15:44:11;6.00;49.90
37322;DHT22;23697;48.684;9.032;2023-04-03T15:46:40;6.10;51.10
37322;DHT22;23697;48.684;9.032;2023-04-03T15:49:07;6.10;49.70
37322;DHT22;23697;48.684;9.032;2023-04-03T15:51:33;6.10;51.20
37322;DHT22;23697;48.684;9.032;2023-04-03T15:54:00;6.10;49.80
37322;DHT22;23697;48.684;9.032;2023-04-03T15:56:27;6.10;49.40
37322;DHT22;23697;48.684;9.032;2023-04-03T15:58:53;6.10;50.20
37322;DHT22;23697;48.684;9.032;2023-04-03T16:01:20;6.10;50.30
37322;DHT22;23697;48.684;9.032;2023-04-03T16:03:48;6.20;50.10